Bayville, New Jersey
Current Conditions -  °F | °C
As of 3:35 AM on Saturday 20 Dec 2014 (Local Time) from KMJX Reporting Station
Overcast Overcast  
Wind Chill: 24°   Ceiling: 2700
Heat Index: 30°   Visibility: 10mi
Dew Point: 23°   Wind: 6mph
Humidity: 75%   Direction: 10°N
Pressure: 30.22"   Gusts: NA
Location:  39.91°N, 74.16°W
Report Text: KMJX 200835Z AUTO 01005KT 10SM OVC027 M01/M05 A3022 RMK AO1
Loading
Personal Weather Stations






























Interactive Weather Map New forecast layout! Learn more

10-Day Weather Forecast

Advertisements
Track Severe Weather on mobile